sensor_id;sensor_type;location;lat;lon;timestamp;P1;P2;P0
57563;PMS7003;43400;45.926;6.724;2023-03-01T00:00:17;65.00;52.75;32.00
57563;PMS7003;43400;45.926;6.724;2023-03-01T00:02:49;63.25;52.75;32.00
57563;PMS7003;43400;45.926;6.724;2023-03-01T00:05:20;64.00;53.50;33.00
57563;PMS7003;43400;45.926;6.724;2023-03-01T00:07:52;59.00;50.40;31.60
57563;PMS7003;43400;45.926;6.724;2023-03-01T00:10:24;69.00;55.50;33.00
57563;PMS7003;43400;45.926;6.724;2023-03-01T00:12:56;69.00;54.75;33.00
57563;PMS7003;43400;45.926;6.724;2023-03-01T00:15:28;69.60;56.40;34.40
57563;PMS7003;43400;45.926;6.724;2023-03-01T00:18:00;67.75;55.25;33.25
57563;PMS7003;43400;45.926;6.724;2023-03-01T00:20:32;73.00;58.00;34.00
57563;PMS7003;43400;45.926;6.724;2023-03-01T00:23:05;65.20;51.60;30.60
57563;PMS7003;43400;45.926;6.724;2023-03-01T00:25:41;61.20;50.40;31.20
57563;PMS7003;43400;45.926;6.724;2023-03-01T00:28:14;61.00;51.25;31.50
57563;PMS7003;43400;45.926;6.724;2023-03-01T00:30:46;59.20;48.00;32.20
57563;PMS7003;43400;45.926;6.724;2023-03-01T00:33:18;63.40;49.40;31.40
57563;PMS7003;43400;45.926;6.724;2023-03-01T00:35:50;61.75;53.25;31.75
57563;PMS7003;43400;45.926;6.724;2023-03-01T00:38:22;64.50;52.75;31.00
57563;PMS7003;43400;45.926;6.724;2023-03-01T00:40:54;61.50;51.75;31.50
57563;PMS7003;43400;45.926;6.724;2023-03-01T00:43:25;64.50;52.75;32.00
57563;PMS7003;43400;45.926;6.724;2023-03-01T00:46:00;59.00;50.75;31.00
57563;PMS7003;43400;45.926;6.724;2023-03-01T00:48:34;56.20;48.00;31.60
57563;PMS7003;43400;45.926;6.724;2023-03-01T00:51:08;61.50;50.00;30.00
57563;PMS7003;43400;45.926;6.724;2023-03-01T00:53:52;57.00;49.50;29.25
57563;PMS7003;43400;45.926;6.724;2023-03-01T00:56:25;59.40;48.20;30.00
57563;PMS7003;43400;45.926;6.724;2023-03-01T00:58:58;62.50;50.00;30.75
57563;PMS7003;43400;45.926;6.724;2023-03-01T01:01:30;49.20;45.40;30.60
57563;PMS7003;43400;45.926;6.724;2023-03-01T01:04:06;62.00;52.00;33.00
57563;PMS7003;43400;45.926;6.724;2023-03-01T01:06:42;78.60;61.40;36.60
57563;PMS7003;43400;45.926;6.724;2023-03-01T01:09:15;64.75;54.25;31.50
57563;PMS7003;43400;45.926;6.724;2023-03-01T01:11:49;61.00;49.00;30.00
57563;PMS7003;43400;45.926;6.724;2023-03-01T01:14:23;58.20;48.00;30.00
57563;PMS7003;43400;45.926;6.724;2023-03-01T01:16:54;97.60;72.80;40.20
57563;PMS7003;43400;45.926;6.724;2023-03-01T01:19:27;71.00;58.00;32.00
57563;PMS7003;43400;45.926;6.724;2023-03-01T01:21:59;58.20;46.60;30.00
57563;PMS7003;43400;45.926;6.724;2023-03-01T01:24:30;59.40;49.40;30.00
57563;PMS7003;43400;45.926;6.724;2023-03-01T01:27:03;60.80;47.80;30.00
57563;PMS7003;43400;45.926;6.724;2023-03-01T01:29:34;49.75;45.50;30.75
57563;PMS7003;43400;45.926;6.724;2023-03-01T01:32:07;57.60;47.40;30.00
57563;PMS7003;43400;45.926;6.724;2023-03-01T01:34:40;57.80;49.80;30.80
57563;PMS7003;43400;45.926;6.724;2023-03-01T01:37:11;62.25;50.75;30.00
57563;PMS7003;43400;45.926;6.724;2023-03-01T01:39:43;52.20;45.80;27.00
57563;PMS7003;43400;45.926;6.724;2023-03-01T01:42:16;57.25;48.25;31.00
57563;PMS7003;43400;45.926;6.724;2023-03-01T01:45:15;55.40;48.00;31.40
57563;PMS7003;43400;45.926;6.724;2023-03-01T01:48:05;61.75;52.00;31.00
57563;PMS7003;43400;45.926;6.724;2023-03-01T01:50:41;63.25;51.75;30.00
57563;PMS7003;43400;45.926;6.724;2023-03-01T01:53:15;51.00;45.00;30.00
57563;PMS7003;43400;45.926;6.724;2023-03-01T01:55:51;55.40;45.00;29.00
57563;PMS7003;43400;45.926;6.724;2023-03-01T01:58:26;54.80;47.20;29.80
57563;PMS7003;43400;45.926;6.724;2023-03-01T02:01:00;52.50;47.00;29.50
57563;PMS7003;43400;45.926;6.724;2023-03-01T02:03:32;57.40;49.80;30.20
57563;PMS7003;43400;45.926;6.724;2023-03-01T02:06:20;65.60;48.60;30.00
57563;PMS7003;43400;45.926;6.724;2023-03-01T02:08:59;65.50;53.00;31.00
57563;PMS7003;43400;45.926;6.724;2023-03-01T02:11:37;63.25;52.00;30.25
57563;PMS7003;43400;45.926;6.724;2023-03-01T02:14:08;62.00;50.75;30.00
57563;PMS7003;43400;45.926;6.724;2023-03-01T02:16:40;59.20;49.40;32.00
57563;PMS7003;43400;45.926;6.724;2023-03-01T02:19:14;64.20;51.60;31.40
57563;PMS7003;43400;45.926;6.724;2023-03-01T02:22:01;64.00;52.00;32.00
57563;PMS7003;43400;45.926;6.724;2023-03-01T02:30:45;60.25;48.25;29.75
57563;PMS7003;43400;45.926;6.724;2023-03-01T02:33:19;61.00;51.00;32.00
57563;PMS7003;43400;45.926;6.724;2023-03-01T02:35:51;62.20;50.20;30.00
57563;PMS7003;43400;45.926;6.724;2023-03-01T02:38:25;63.60;52.40;33.00
57563;PMS7003;43400;45.926;6.724;2023-03-01T02:40:58;65.75;54.00;33.00
57563;PMS7003;43400;45.926;6.724;2023-03-01T02:43:32;68.50;57.00;35.25
57563;PMS7003;43400;45.926;6.724;2023-03-01T02:46:08;72.00;60.60;37.00
57563;PMS7003;43400;45.926;6.724;2023-03-01T02:48:49;69.75;56.25;35.00
57563;PMS7003;43400;45.926;6.724;2023-03-01T02:54:28;68.25;55.75;34.75
57563;PMS7003;43400;45.926;6.724;2023-03-01T02:57:01;69.00;58.75;36.00
57563;PMS7003;43400;45.926;6.724;2023-03-01T02:59:34;64.40;52.80;33.20
57563;PMS7003;43400;45.926;6.724;2023-03-01T03:02:17;67.50;55.00;33.25
57563;PMS7003;43400;45.926;6.724;2023-03-01T03:04:51;62.80;53.40;32.80
57563;PMS7003;43400;45.926;6.724;2023-03-01T03:07:23;66.50;54.75;32.25
57563;PMS7003;43400;45.926;6.724;2023-03-01T03:09:54;62.00;51.25;33.00
57563;PMS7003;43400;45.926;6.724;2023-03-01T03:12:26;64.50;54.50;33.25
57563;PMS7003;43400;45.926;6.724;2023-03-01T03:14:58;65.00;53.25;33.00
57563;PMS7003;43400;45.926;6.724;2023-03-01T03:17:29;59.25;50.00;32.00
57563;PMS7003;43400;45.926;6.724;2023-03-01T03:20:01;65.40;54.40;32.80
57563;PMS7003;43400;45.926;6.724;2023-03-01T03:22:38;62.00;50.50;33.00
57563;PMS7003;43400;45.926;6.724;2023-03-01T03:25:10;68.00;55.50;34.00
57563;PMS7003;43400;45.926;6.724;2023-03-01T03:27:43;68.25;57.75;33.00
57563;PMS7003;43400;45.926;6.724;2023-03-01T03:30:16;66.25;54.25;33.25
57563;PMS7003;43400;45.926;6.724;2023-03-01T03:32:49;68.75;58.00;36.00
57563;PMS7003;43400;45.926;6.724;2023-03-01T03:35:23;68.00;56.00;33.25
57563;PMS7003;43400;45.926;6.724;2023-03-01T03:38:01;68.60;56.00;36.20
57563;PMS7003;43400;45.926;6.724;2023-03-01T03:40:37;67.80;57.60;33.80
57563;PMS7003;43400;45.926;6.724;2023-03-01T03:43:14;65.75;55.00;33.00
57563;PMS7003;43400;45.926;6.724;2023-03-01T03:45:48;73.20;60.60;36.00
57563;PMS7003;43400;45.926;6.724;2023-03-01T03:48:20;67.20;55.80;35.60
57563;PMS7003;43400;45.926;6.724;2023-03-01T03:50:53;65.33;55.33;36.00
57563;PMS7003;43400;45.926;6.724;2023-03-01T03:53:26;62.00;53.20;33.00
57563;PMS7003;43400;45.926;6.724;2023-03-01T03:56:00;64.50;53.00;33.00
57563;PMS7003;43400;45.926;6.724;2023-03-01T03:58:31;67.25;54.00;33.00
57563;PMS7003;43400;45.926;6.724;2023-03-01T04:01:03;66.40;54.00;33.60
57563;PMS7003;43400;45.926;6.724;2023-03-01T04:03:35;62.60;53.60;33.80
57563;PMS7003;43400;45.926;6.724;2023-03-01T04:06:07;67.50;56.00;35.50
57563;PMS7003;43400;45.926;6.724;2023-03-01T04:08:38;66.75;55.25;33.75
57563;PMS7003;43400;45.926;6.724;2023-03-01T04:11:10;66.40;55.20;33.20
57563;PMS7003;43400;45.926;6.724;2023-03-01T04:13:42;59.50;51.75;33.00
57563;PMS7003;43400;45.926;6.724;2023-03-01T04:16:14;60.00;49.00;32.75
57563;PMS7003;43400;45.926;6.724;2023-03-01T04:18:46;58.40;50.00;31.20
57563;PMS7003;43400;45.926;6.724;2023-03-01T04:21:18;63.33;52.00;30.67
57563;PMS7003;43400;45.926;6.724;2023-03-01T04:23:49;61.00;51.50;31.00
57563;PMS7003;43400;45.926;6.724;2023-03-01T04:26:21;59.20;48.00;30.00
57563;PMS7003;43400;45.926;6.724;2023-03-01T04:28:53;59.25;49.75;32.00
57563;PMS7003;43400;45.926;6.724;2023-03-01T04:31:24;57.00;50.00;32.00
57563;PMS7003;43400;45.926;6.724;2023-03-01T04:33:56;61.50;48.50;29.25
57563;PMS7003;43400;45.926;6.724;2023-03-01T04:36:28;57.50;48.50;30.00
57563;PMS7003;43400;45.926;6.724;2023-03-01T04:39:00;60.40;48.00;29.80
57563;PMS7003;43400;45.926;6.724;2023-03-01T04:41:32;61.33;50.00;30.00
57563;PMS7003;43400;45.926;6.724;2023-03-01T04:44:03;56.50;48.00;31.00
57563;PMS7003;43400;45.926;6.724;2023-03-01T04:46:35;49.25;45.00;29.50
57563;PMS7003;43400;45.926;6.724;2023-03-01T04:49:07;59.40;47.80;29.20
57563;PMS7003;43400;45.926;6.724;2023-03-01T04:51:39;53.25;46.50;29.00
57563;PMS7003;43400;45.926;6.724;2023-03-01T04:54:11;59.25;47.75;29.75
57563;PMS7003;43400;45.926;6.724;2023-03-01T04:56:42;57.00;49.25;32.00
57563;PMS7003;43400;45.926;6.724;2023-03-01T04:59:13;62.75;50.75;30.00
57563;PMS7003;43400;45.926;6.724;2023-03-01T05:01:45;60.75;50.00;31.50
57563;PMS7003;43400;45.926;6.724;2023-03-01T05:04:17;62.50;51.75;32.00
57563;PMS7003;43400;45.926;6.724;2023-03-01T05:06:49;58.00;48.40;30.00
57563;PMS7003;43400;45.926;6.724;2023-03-01T05:09:21;67.50;53.50;32.00
57563;PMS7003;43400;45.926;6.724;2023-03-01T05:11:52;65.20;53.00;32.00
57563;PMS7003;43400;45.926;6.724;2023-03-01T05:14:24;63.20;53.20;32.40
57563;PMS7003;43400;45.926;6.724;2023-03-01T05:16:55;67.00;55.25;31.75
57563;PMS7003;43400;45.926;6.724;2023-03-01T05:19:27;60.75;52.25;32.25
57563;PMS7003;43400;45.926;6.724;2023-03-01T05:21:58;57.25;48.25;30.50
57563;PMS7003;43400;45.926;6.724;2023-03-01T05:24:31;62.50;52.50;33.00
57563;PMS7003;43400;45.926;6.724;2023-03-01T05:27:04;62.00;50.75;31.75
57563;PMS7003;43400;45.926;6.724;2023-03-01T05:29:36;65.00;54.50;32.00
57563;PMS7003;43400;45.926;6.724;2023-03-01T05:32:07;67.33;56.33;32.00
57563;PMS7003;43400;45.926;6.724;2023-03-01T05:34:39;57.60;46.80;30.00
57563;PMS7003;43400;45.926;6.724;2023-03-01T05:37:11;60.00;50.50;31.00
57563;PMS7003;43400;45.926;6.724;2023-03-01T05:39:43;59.80;49.20;31.20
57563;PMS7003;43400;45.926;6.724;2023-03-01T05:42:15;62.00;51.40;32.00
57563;PMS7003;43400;45.926;6.724;2023-03-01T05:44:47;63.20;51.20;30.40
57563;PMS7003;43400;45.926;6.724;2023-03-01T05:47:18;67.60;54.80;32.00
57563;PMS7003;43400;45.926;6.724;2023-03-01T05:49:50;59.75;51.75;33.00
57563;PMS7003;43400;45.926;6.724;2023-03-01T05:52:22;64.33;52.33;32.00
57563;PMS7003;43400;45.926;6.724;2023-03-01T05:54:53;62.00;51.00;32.25
57563;PMS7003;43400;45.926;6.724;2023-03-01T05:57:25;65.20;55.00;31.00
57563;PMS7003;43400;45.926;6.724;2023-03-01T05:59:59;68.60;56.40;31.00
57563;PMS7003;43400;45.926;6.724;2023-03-01T06:02:31;56.50;49.00;29.00
57563;PMS7003;43400;45.926;6.724;2023-03-01T06:05:02;60.00;48.25;30.25
57563;PMS7003;43400;45.926;6.724;2023-03-01T06:07:35;65.00;54.80;31.00
57563;PMS7003;43400;45.926;6.724;2023-03-01T06:10:07;63.00;52.00;30.40
57563;PMS7003;43400;45.926;6.724;2023-03-01T06:12:40;60.60;51.40;30.80
57563;PMS7003;43400;45.926;6.724;2023-03-01T06:15:13;60.25;51.25;31.00
57563;PMS7003;43400;45.926;6.724;2023-03-01T06:17:46;56.00;48.00;30.25
57563;PMS7003;43400;45.926;6.724;2023-03-01T06:20:19;69.00;53.00;30.75
57563;PMS7003;43400;45.926;6.724;2023-03-01T06:22:52;64.00;49.20;31.00
57563;PMS7003;43400;45.926;6.724;2023-03-01T06:25:24;65.80;54.00;31.20
57563;PMS7003;43400;45.926;6.724;2023-03-01T06:27:57;63.50;53.50;31.50
57563;PMS7003;43400;45.926;6.724;2023-03-01T06:30:29;64.50;54.00;30.00
57563;PMS7003;43400;45.926;6.724;2023-03-01T06:33:01;62.75;50.50;29.75
57563;PMS7003;43400;45.926;6.724;2023-03-01T06:35:32;64.60;51.20;29.40
57563;PMS7003;43400;45.926;6.724;2023-03-01T06:38:04;63.40;54.00;30.00
57563;PMS7003;43400;45.926;6.724;2023-03-01T06:40:36;63.00;51.67;30.00
57563;PMS7003;43400;45.926;6.724;2023-03-01T06:43:07;67.33;54.67;30.00
57563;PMS7003;43400;45.926;6.724;2023-03-01T06:45:39;66.50;55.00;30.50
57563;PMS7003;43400;45.926;6.724;2023-03-01T06:48:11;61.00;51.50;30.00
57563;PMS7003;43400;45.926;6.724;2023-03-01T06:50:42;62.50;52.00;30.50
57563;PMS7003;43400;45.926;6.724;2023-03-01T06:53:14;62.60;50.60;29.40
57563;PMS7003;43400;45.926;6.724;2023-03-01T06:55:45;57.25;48.75;31.00
57563;PMS7003;43400;45.926;6.724;2023-03-01T06:58:17;62.75;49.00;29.25
57563;PMS7003;43400;45.926;6.724;2023-03-01T07:00:49;56.00;47.75;29.50
57563;PMS7003;43400;45.926;6.724;2023-03-01T07:03:20;62.00;52.00;30.00
57563;PMS7003;43400;45.926;6.724;2023-03-01T07:05:52;64.00;50.75;30.50
57563;PMS7003;43400;45.926;6.724;2023-03-01T07:08:24;67.40;54.40;31.00
57563;PMS7003;43400;45.926;6.724;2023-03-01T07:10:56;61.20;50.00;30.00
57563;PMS7003;43400;45.926;6.724;2023-03-01T07:13:28;67.00;52.00;30.50
57563;PMS7003;43400;45.926;6.724;2023-03-01T07:16:00;64.20;51.80;31.00
57563;PMS7003;43400;45.926;6.724;2023-03-01T07:18:32;64.25;51.00;28.50
57563;PMS7003;43400;45.926;6.724;2023-03-01T07:21:11;53.33;46.33;30.00
57563;PMS7003;43400;45.926;6.724;2023-03-01T07:23:46;61.20;48.80;30.60
57563;PMS7003;43400;45.926;6.724;2023-03-01T07:26:18;67.50;53.50;31.00
57563;PMS7003;43400;45.926;6.724;2023-03-01T07:28:50;65.80;51.80;31.00
57563;PMS7003;43400;45.926;6.724;2023-03-01T07:31:22;58.80;47.60;30.00
57563;PMS7003;43400;45.926;6.724;2023-03-01T07:33:54;66.25;53.00;31.00
57563;PMS7003;43400;45.926;6.724;2023-03-01T07:36:26;64.75;52.00;30.00
57563;PMS7003;43400;45.926;6.724;2023-03-01T07:38:57;63.50;52.00;31.00
57563;PMS7003;43400;45.926;6.724;2023-03-01T07:41:29;60.20;49.00;30.00
57563;PMS7003;43400;45.926;6.724;2023-03-01T07:44:01;63.80;52.40;31.80
57563;PMS7003;43400;45.926;6.724;2023-03-01T07:46:32;65.60;53.80;33.00
57563;PMS7003;43400;45.926;6.724;2023-03-01T07:49:04;64.00;51.33;31.00
57563;PMS7003;43400;45.926;6.724;2023-03-01T07:51:35;64.60;51.40;30.60
57563;PMS7003;43400;45.926;6.724;2023-03-01T07:54:07;63.50;53.25;30.50
57563;PMS7003;43400;45.926;6.724;2023-03-01T07:56:39;61.75;52.00;31.00
57563;PMS7003;43400;45.926;6.724;2023-03-01T07:59:11;65.60;53.20;30.60
57563;PMS7003;43400;45.926;6.724;2023-03-01T08:01:43;65.00;53.60;30.00
57563;PMS7003;43400;45.926;6.724;2023-03-01T08:04:14;71.80;56.20;31.20
57563;PMS7003;43400;45.926;6.724;2023-03-01T08:06:46;60.20;50.60;30.80
57563;PMS7003;43400;45.926;6.724;2023-03-01T08:09:17;67.00;55.00;31.75
57563;PMS7003;43400;45.926;6.724;2023-03-01T08:11:49;71.60;55.20;31.60
57563;PMS7003;43400;45.926;6.724;2023-03-01T08:14:20;65.50;51.50;30.25
57563;PMS7003;43400;45.926;6.724;2023-03-01T08:16:52;68.80;54.00;30.00
57563;PMS7003;43400;45.926;6.724;2023-03-01T08:19:24;64.60;53.60;31.00
57563;PMS7003;43400;45.926;6.724;2023-03-01T08:21:56;69.75;55.00;31.00
57563;PMS7003;43400;45.926;6.724;2023-03-01T08:24:27;65.25;49.00;29.00
57563;PMS7003;43400;45.926;6.724;2023-03-01T08:26:59;65.00;53.25;29.75
57563;PMS7003;43400;45.926;6.724;2023-03-01T08:29:31;64.00;52.25;30.00
57563;PMS7003;43400;45.926;6.724;2023-03-01T08:32:03;58.80;49.20;30.60
57563;PMS7003;43400;45.926;6.724;2023-03-01T08:34:35;63.50;52.00;30.00
57563;PMS7003;43400;45.926;6.724;2023-03-01T08:37:06;64.00;52.00;30.00
57563;PMS7003;43400;45.926;6.724;2023-03-01T08:39:37;62.50;51.50;31.25
57563;PMS7003;43400;45.926;6.724;2023-03-01T08:42:09;67.75;54.75;30.25
57563;PMS7003;43400;45.926;6.724;2023-03-01T08:44:40;80.00;64.50;38.00
57563;PMS7003;43400;45.926;6.724;2023-03-01T08:47:12;63.75;53.25;31.50
57563;PMS7003;43400;45.926;6.724;2023-03-01T08:49:43;68.40;53.60;29.20
57563;PMS7003;43400;45.926;6.724;2023-03-01T08:52:15;61.75;50.25;31.00
57563;PMS7003;43400;45.926;6.724;2023-03-01T08:54:47;66.25;53.50;31.00
57563;PMS7003;43400;45.926;6.724;2023-03-01T08:57:19;64.50;52.00;31.00
57563;PMS7003;43400;45.926;6.724;2023-03-01T08:59:50;67.25;52.25;31.25
57563;PMS7003;43400;45.926;6.724;2023-03-01T09:02:22;64.00;51.00;30.00
57563;PMS7003;43400;45.926;6.724;2023-03-01T09:04:54;58.75;48.00;31.00
57563;PMS7003;43400;45.926;6.724;2023-03-01T09:07:26;67.20;54.20;31.60
57563;PMS7003;43400;45.926;6.724;2023-03-01T09:09:57;60.80;49.00;31.00
57563;PMS7003;43400;45.926;6.724;2023-03-01T09:31:01;67.00;53.75;31.00
57563;PMS7003;43400;45.926;6.724;2023-03-01T09:33:36;64.40;54.80;29.40
57563;PMS7003;43400;45.926;6.724;2023-03-01T10:08:40;64.50;52.25;30.00
57563;PMS7003;43400;45.926;6.724;2023-03-01T10:11:22;64.00;52.00;30.00
57563;PMS7003;43400;45.926;6.724;2023-03-01T10:14:02;68.33;54.00;30.00
57563;PMS7003;43400;45.926;6.724;2023-03-01T10:19:44;65.25;54.25;30.50
57563;PMS7003;43400;45.926;6.724;2023-03-01T10:22:27;76.80;60.00;36.00
57563;PMS7003;43400;45.926;6.724;2023-03-01T10:25:01;62.00;51.20;30.00
57563;PMS7003;43400;45.926;6.724;2023-03-01T10:27:37;64.00;51.80;30.00
57563;PMS7003;43400;45.926;6.724;2023-03-01T10:30:29;64.50;52.00;30.00
57563;PMS7003;43400;45.926;6.724;2023-03-01T10:33:49;60.25;51.00;29.50
57563;PMS7003;43400;45.926;6.724;2023-03-01T10:36:03;65.60;53.00;29.60
57563;PMS7003;43400;45.926;6.724;2023-03-01T10:38:51;67.75;52.25;30.75
57563;PMS7003;43400;45.926;6.724;2023-03-01T10:41:25;59.00;48.50;28.00
57563;PMS7003;43400;45.926;6.724;2023-03-01T10:43:58;62.50;50.00;27.75
57563;PMS7003;43400;45.926;6.724;2023-03-01T10:46:31;56.75;46.75;27.00
57563;PMS7003;43400;45.926;6.724;2023-03-01T10:49:21;60.00;49.00;28.40
57563;PMS7003;43400;45.926;6.724;2023-03-01T10:51:54;59.33;48.00;28.00
57563;PMS7003;43400;45.926;6.724;2023-03-01T10:54:27;53.75;45.00;29.00
57563;PMS7003;43400;45.926;6.724;2023-03-01T10:57:02;61.25;50.00;29.00
57563;PMS7003;43400;45.926;6.724;2023-03-01T10:59:36;61.25;50.00;29.00
57563;PMS7003;43400;45.926;6.724;2023-03-01T11:02:27;58.40;47.00;28.20
57563;PMS7003;43400;45.926;6.724;2023-03-01T11:05:13;54.20;44.00;26.00
57563;PMS7003;43400;45.926;6.724;2023-03-01T11:07:53;56.20;46.80;27.60
57563;PMS7003;43400;45.926;6.724;2023-03-01T11:10:27;53.50;44.50;27.00
57563;PMS7003;43400;45.926;6.724;2023-03-01T11:15:59;52.50;43.00;26.50
57563;PMS7003;43400;45.926;6.724;2023-03-01T11:18:40;49.75;42.50;25.00
57563;PMS7003;43400;45.926;6.724;2023-03-01T11:21:11;46.40;39.80;25.00
57563;PMS7003;43400;45.926;6.724;2023-03-01T11:23:43;47.25;40.50;25.00
57563;PMS7003;43400;45.926;6.724;2023-03-01T11:26:17;47.00;39.80;25.00
57563;PMS7003;43400;45.926;6.724;2023-03-01T11:28:51;49.00;40.00;25.00
57563;PMS7003;43400;45.926;6.724;2023-03-01T11:31:29;49.00;40.00;25.50
57563;PMS7003;43400;45.926;6.724;2023-03-01T11:34:05;46.25;38.00;24.00
57563;PMS7003;43400;45.926;6.724;2023-03-01T11:36:44;43.25;37.75;24.50
57563;PMS7003;43400;45.926;6.724;2023-03-01T11:39:31;51.80;40.40;24.00
57563;PMS7003;43400;45.926;6.724;2023-03-01T11:42:13;44.75;37.25;24.75
57563;PMS7003;43400;45.926;6.724;2023-03-01T11:44:50;45.40;39.00;24.00
57563;PMS7003;43400;45.926;6.724;2023-03-01T11:50:08;45.75;37.00;23.25
57563;PMS7003;43400;45.926;6.724;2023-03-01T11:56:38;44.25;37.00;24.75
57563;PMS7003;43400;45.926;6.724;2023-03-01T11:58:58;48.50;39.25;24.00
57563;PMS7003;43400;45.926;6.724;2023-03-01T12:07:44;46.50;38.50;24.00
57563;PMS7003;43400;45.926;6.724;2023-03-01T12:10:57;43.60;37.80;24.80
57563;PMS7003;43400;45.926;6.724;2023-03-01T12:30:21;46.25;39.00;24.00
57563;PMS7003;43400;45.926;6.724;2023-03-01T12:38:59;41.80;36.20;24.00
57563;PMS7003;43400;45.926;6.724;2023-03-01T12:44:39;49.00;39.00;24.20
57563;PMS7003;43400;45.926;6.724;2023-03-01T12:50:28;41.00;36.40;23.60
57563;PMS7003;43400;45.926;6.724;2023-03-01T12:55:52;49.50;40.75;24.00
57563;PMS7003;43400;45.926;6.724;2023-03-01T13:01:29;46.20;39.40;25.00
57563;PMS7003;43400;45.926;6.724;2023-03-01T13:15:57;47.40;39.60;24.00
57563;PMS7003;43400;45.926;6.724;2023-03-01T13:19:15;48.25;40.00;25.00
57563;PMS7003;43400;45.926;6.724;2023-03-01T13:21:52;40.50;36.25;24.00
57563;PMS7003;43400;45.926;6.724;2023-03-01T13:24:26;45.25;39.25;23.25
57563;PMS7003;43400;45.926;6.724;2023-03-01T13:29:49;43.20;39.00;24.00
57563;PMS7003;43400;45.926;6.724;2023-03-01T13:32:29;48.80;41.80;24.60
57563;PMS7003;43400;45.926;6.724;2023-03-01T13:37:46;42.80;37.20;24.20
57563;PMS7003;43400;45.926;6.724;2023-03-01T13:42:49;42.50;37.75;23.50
57563;PMS7003;43400;45.926;6.724;2023-03-01T13:45:25;40.60;36.40;23.40
57563;PMS7003;43400;45.926;6.724;2023-03-01T13:48:14;48.20;40.00;23.40
57563;PMS7003;43400;45.926;6.724;2023-03-01T13:50:59;43.25;37.50;23.50
57563;PMS7003;43400;45.926;6.724;2023-03-01T13:53:34;43.40;35.40;23.00
57563;PMS7003;43400;45.926;6.724;2023-03-01T13:58:51;48.00;39.40;23.00
57563;PMS7003;43400;45.926;6.724;2023-03-01T14:01:33;43.25;37.25;24.00
57563;PMS7003;43400;45.926;6.724;2023-03-01T14:04:25;40.00;35.00;23.00
57563;PMS7003;43400;45.926;6.724;2023-03-01T14:09:49;39.50;35.25;23.00
57563;PMS7003;43400;45.926;6.724;2023-03-01T14:15:17;47.40;38.40;23.80
57563;PMS7003;43400;45.926;6.724;2023-03-01T14:20:29;47.80;40.20;22.60
57563;PMS7003;43400;45.926;6.724;2023-03-01T14:23:08;49.20;41.00;23.00
57563;PMS7003;43400;45.926;6.724;2023-03-01T14:25:50;44.75;37.50;23.00
57563;PMS7003;43400;45.926;6.724;2023-03-01T14:28:28;43.50;36.50;22.50
57563;PMS7003;43400;45.926;6.724;2023-03-01T14:31:01;39.80;35.00;21.60
57563;PMS7003;43400;45.926;6.724;2023-03-01T14:33:35;41.75;38.00;24.75
57563;PMS7003;43400;45.926;6.724;2023-03-01T14:36:11;45.00;37.50;24.75
57563;PMS7003;43400;45.926;6.724;2023-03-01T14:38:44;44.00;37.50;24.00
57563;PMS7003;43400;45.926;6.724;2023-03-01T14:41:21;38.60;35.20;22.40
57563;PMS7003;43400;45.926;6.724;2023-03-01T14:43:58;47.50;39.00;23.25
57563;PMS7003;43400;45.926;6.724;2023-03-01T14:46:38;41.25;37.00;24.00
57563;PMS7003;43400;45.926;6.724;2023-03-01T14:51:53;41.25;35.00;22.25
57563;PMS7003;43400;45.926;6.724;2023-03-01T14:54:49;43.80;38.40;24.80
57563;PMS7003;43400;45.926;6.724;2023-03-01T14:57:25;45.20;38.00;22.80
57563;PMS7003;43400;45.926;6.724;2023-03-01T14:59:58;41.25;35.75;23.75
57563;PMS7003;43400;45.926;6.724;2023-03-01T15:02:32;44.00;38.00;22.00
57563;PMS7003;43400;45.926;6.724;2023-03-01T15:05:05;44.00;38.00;24.00
57563;PMS7003;43400;45.926;6.724;2023-03-01T15:07:38;42.50;35.25;23.00
57563;PMS7003;43400;45.926;6.724;2023-03-01T15:10:15;42.20;36.00;23.40
57563;PMS7003;43400;45.926;6.724;2023-03-01T15:12:51;45.60;38.60;23.60
57563;PMS7003;43400;45.926;6.724;2023-03-01T15:15:36;41.40;37.00;22.00
57563;PMS7003;43400;45.926;6.724;2023-03-01T15:18:16;41.00;37.25;23.00
57563;PMS7003;43400;45.926;6.724;2023-03-01T15:26:43;45.00;39.00;22.60
57563;PMS7003;43400;45.926;6.724;2023-03-01T15:29:17;41.00;35.60;22.20
57563;PMS7003;43400;45.926;6.724;2023-03-01T15:31:58;47.00;39.50;22.25
57563;PMS7003;43400;45.926;6.724;2023-03-01T15:37:36;41.00;38.00;25.00
57563;PMS7003;43400;45.926;6.724;2023-03-01T15:40:19;48.25;40.50;25.50
57563;PMS7003;43400;45.926;6.724;2023-03-01T15:42:57;48.20;41.00;24.60
57563;PMS7003;43400;45.926;6.724;2023-03-01T15:45:33;51.25;40.25;25.00
57563;PMS7003;43400;45.926;6.724;2023-03-01T15:48:25;45.50;40.00;23.00
57563;PMS7003;43400;45.926;6.724;2023-03-01T15:50:57;44.00;38.60;23.20
57563;PMS7003;43400;45.926;6.724;2023-03-01T15:53:30;50.00;42.00;25.00
57563;PMS7003;43400;45.926;6.724;2023-03-01T15:56:02;42.60;37.00;24.00
57563;PMS7003;43400;45.926;6.724;2023-03-01T15:58:33;44.25;38.25;24.00
57563;PMS7003;43400;45.926;6.724;2023-03-01T16:01:08;44.67;38.67;25.00
57563;PMS7003;43400;45.926;6.724;2023-03-01T16:03:45;49.60;41.40;26.80
57563;PMS7003;43400;45.926;6.724;2023-03-01T16:06:17;47.33;38.00;23.00
57563;PMS7003;43400;45.926;6.724;2023-03-01T16:08:49;45.75;39.75;26.00
57563;PMS7003;43400;45.926;6.724;2023-03-01T16:11:21;48.75;43.00;25.50
57563;PMS7003;43400;45.926;6.724;2023-03-01T16:13:53;49.20;39.60;25.60
57563;PMS7003;43400;45.926;6.724;2023-03-01T16:16:25;48.33;42.00;24.67
57563;PMS7003;43400;45.926;6.724;2023-03-01T16:18:56;45.00;40.00;24.40
57563;PMS7003;43400;45.926;6.724;2023-03-01T16:21:28;45.40;39.20;24.80
57563;PMS7003;43400;45.926;6.724;2023-03-01T16:23:59;43.50;39.75;25.00
57563;PMS7003;43400;45.926;6.724;2023-03-01T16:26:31;48.25;41.75;26.00
57563;PMS7003;43400;45.926;6.724;2023-03-01T16:29:03;46.40;41.20;23.20
57563;PMS7003;43400;45.926;6.724;2023-03-01T16:31:35;50.00;42.60;26.60
57563;PMS7003;43400;45.926;6.724;2023-03-01T16:34:08;44.25;39.25;26.00
57563;PMS7003;43400;45.926;6.724;2023-03-01T16:36:41;46.00;41.00;25.80
57563;PMS7003;43400;45.926;6.724;2023-03-01T16:39:13;46.75;41.25;24.50
57563;PMS7003;43400;45.926;6.724;2023-03-01T16:41:45;50.00;41.00;26.00
57563;PMS7003;43400;45.926;6.724;2023-03-01T16:44:17;52.00;44.00;25.00
57563;PMS7003;43400;45.926;6.724;2023-03-01T16:46:49;45.75;40.00;23.50
57563;PMS7003;43400;45.926;6.724;2023-03-01T16:49:20;42.00;39.00;24.50
57563;PMS7003;43400;45.926;6.724;2023-03-01T16:51:55;55.75;45.25;29.00
57563;PMS7003;43400;45.926;6.724;2023-03-01T16:54:26;47.00;41.00;24.80
57563;PMS7003;43400;45.926;6.724;2023-03-01T16:56:58;49.60;44.20;23.60
57563;PMS7003;43400;45.926;6.724;2023-03-01T16:59:30;55.40;45.00;25.00
57563;PMS7003;43400;45.926;6.724;2023-03-01T17:02:01;45.00;40.75;25.75